sensor_id;sensor_type;location;lat;lon;timestamp;P1;durP1;ratioP1;P2;durP2;ratioP2
59960;SDS011;55902;-37.980;-63.602;2023-04-03T00:01:39;13.82;;;2.47;;
59960;SDS011;55902;-37.980;-63.602;2023-04-03T00:04:07;7.20;;;2.10;;
59960;SDS011;55902;-37.980;-63.602;2023-04-03T00:06:33;13.13;;;2.28;;
59960;SDS011;55902;-37.980;-63.602;2023-04-03T00:09:00;6.63;;;1.90;;
59960;SDS011;55902;-37.980;-63.602;2023-04-03T00:11:27;5.93;;;2.30;;
59960;SDS011;55902;-37.980;-63.602;2023-04-03T00:13:54;8.90;;;2.22;;
59960;SDS011;55902;-37.980;-63.602;2023-04-03T00:16:21;10.57;;;2.10;;
59960;SDS011;55902;-37.980;-63.602;2023-04-03T00:18:48;16.38;;;2.60;;
59960;SDS011;55902;-37.980;-63.602;2023-04-03T00:21:15;12.45;;;2.50;;
59960;SDS011;55902;-37.980;-63.602;2023-04-03T00:23:42;8.23;;;2.85;;
59960;SDS011;55902;-37.980;-63.602;2023-04-03T00:26:09;10.77;;;2.00;;
59960;SDS011;55902;-37.980;-63.602;2023-04-03T00:28:36;11.75;;;2.05;;
59960;SDS011;55902;-37.980;-63.602;2023-04-03T00:31:03;10.25;;;2.22;;
59960;SDS011;55902;-37.980;-63.602;2023-04-03T00:33:30;8.35;;;2.00;;
59960;SDS011;55902;-37.980;-63.602;2023-04-03T00:35:57;7.85;;;1.98;;
59960;SDS011;55902;-37.980;-63.602;2023-04-03T00:38:24;5.68;;;1.90;;
59960;SDS011;55902;-37.980;-63.602;2023-04-03T00:40:51;7.90;;;1.90;;
59960;SDS011;55902;-37.980;-63.602;2023-04-03T00:43:23;7.18;;;1.95;;
59960;SDS011;55902;-37.980;-63.602;2023-04-03T00:45:52;8.60;;;2.60;;
59960;SDS011;55902;-37.980;-63.602;2023-04-03T00:51:31;14.82;;;3.08;;
59960;SDS011;55902;-37.980;-63.602;2023-04-03T00:53:59;15.85;;;2.72;;
59960;SDS011;55902;-37.980;-63.602;2023-04-03T00:56:30;10.52;;;2.47;;
59960;SDS011;55902;-37.980;-63.602;2023-04-03T00:59:06;9.27;;;2.50;;
59960;SDS011;55902;-37.980;-63.602;2023-04-03T01:01:40;7.53;;;2.10;;
59960;SDS011;55902;-37.980;-63.602;2023-04-03T01:07:14;7.65;;;1.92;;
59960;SDS011;55902;-37.980;-63.602;2023-04-03T01:09:48;5.90;;;1.80;;
59960;SDS011;55902;-37.980;-63.602;2023-04-03T01:14:48;5.10;;;1.83;;
59960;SDS011;55902;-37.980;-63.602;2023-04-03T01:30:36;7.20;;;1.80;;
59960;SDS011;55902;-37.980;-63.602;2023-04-03T01:33:34;5.68;;;1.90;;
59960;SDS011;55902;-37.980;-63.602;2023-04-03T01:36:01;6.15;;;1.90;;
59960;SDS011;55902;-37.980;-63.602;2023-04-03T01:38:31;6.50;;;1.90;;
59960;SDS011;55902;-37.980;-63.602;2023-04-03T01:40:58;3.88;;;1.60;;
59960;SDS011;55902;-37.980;-63.602;2023-04-03T01:43:25;6.43;;;1.85;;
59960;SDS011;55902;-37.980;-63.602;2023-04-03T01:45:52;5.20;;;1.83;;
59960;SDS011;55902;-37.980;-63.602;2023-04-03T01:48:20;4.90;;;1.85;;
59960;SDS011;55902;-37.980;-63.602;2023-04-03T01:50:47;4.70;;;1.60;;
59960;SDS011;55902;-37.980;-63.602;2023-04-03T01:53:14;7.80;;;2.10;;
59960;SDS011;55902;-37.980;-63.602;2023-04-03T01:55:41;3.50;;;1.90;;
59960;SDS011;55902;-37.980;-63.602;2023-04-03T01:58:08;4.13;;;1.98;;
59960;SDS011;55902;-37.980;-63.602;2023-04-03T02:00:35;4.30;;;1.80;;
59960;SDS011;55902;-37.980;-63.602;2023-04-03T02:03:02;6.68;;;2.00;;
59960;SDS011;55902;-37.980;-63.602;2023-04-03T02:05:29;3.88;;;1.92;;
59960;SDS011;55902;-37.980;-63.602;2023-04-03T02:07:56;7.75;;;1.90;;
59960;SDS011;55902;-37.980;-63.602;2023-04-03T02:10:23;5.40;;;2.25;;
59960;SDS011;55902;-37.980;-63.602;2023-04-03T02:12:50;5.72;;;2.20;;
59960;SDS011;55902;-37.980;-63.602;2023-04-03T02:15:17;7.30;;;2.10;;
59960;SDS011;55902;-37.980;-63.602;2023-04-03T02:17:44;7.05;;;2.20;;
59960;SDS011;55902;-37.980;-63.602;2023-04-03T02:23:33;7.05;;;2.00;;
59960;SDS011;55902;-37.980;-63.602;2023-04-03T02:26:08;5.82;;;1.98;;
59960;SDS011;55902;-37.980;-63.602;2023-04-03T02:31:05;4.90;;;2.25;;
59960;SDS011;55902;-37.980;-63.602;2023-04-03T02:33:34;4.53;;;2.22;;
59960;SDS011;55902;-37.980;-63.602;2023-04-03T02:36:04;6.93;;;2.30;;
59960;SDS011;55902;-37.980;-63.602;2023-04-03T02:38:32;8.07;;;2.30;;
59960;SDS011;55902;-37.980;-63.602;2023-04-03T02:41:00;8.15;;;2.40;;
59960;SDS011;55902;-37.980;-63.602;2023-04-03T02:43:31;3.95;;;2.30;;
59960;SDS011;55902;-37.980;-63.602;2023-04-03T02:46:13;4.70;;;2.20;;
59960;SDS011;55902;-37.980;-63.602;2023-04-03T02:48:40;8.52;;;2.58;;
59960;SDS011;55902;-37.980;-63.602;2023-04-03T02:51:26;5.55;;;2.25;;
59960;SDS011;55902;-37.980;-63.602;2023-04-03T02:53:56;9.98;;;2.40;;
59960;SDS011;55902;-37.980;-63.602;2023-04-03T02:56:23;10.80;;;2.40;;
59960;SDS011;55902;-37.980;-63.602;2023-04-03T02:58:50;7.10;;;2.85;;
59960;SDS011;55902;-37.980;-63.602;2023-04-03T03:01:17;7.18;;;2.70;;
59960;SDS011;55902;-37.980;-63.602;2023-04-03T03:03:44;5.78;;;2.30;;
59960;SDS011;55902;-37.980;-63.602;2023-04-03T03:06:12;7.82;;;2.90;;
59960;SDS011;55902;-37.980;-63.602;2023-04-03T03:08:41;6.72;;;2.63;;
59960;SDS011;55902;-37.980;-63.602;2023-04-03T03:11:09;7.25;;;2.40;;
59960;SDS011;55902;-37.980;-63.602;2023-04-03T03:13:36;6.88;;;2.58;;
59960;SDS011;55902;-37.980;-63.602;2023-04-03T03:16:03;9.40;;;2.65;;
59960;SDS011;55902;-37.980;-63.602;2023-04-03T03:18:31;6.15;;;2.78;;
59960;SDS011;55902;-37.980;-63.602;2023-04-03T03:21:00;9.35;;;2.92;;
59960;SDS011;55902;-37.980;-63.602;2023-04-03T03:23:28;9.25;;;2.92;;
59960;SDS011;55902;-37.980;-63.602;2023-04-03T03:25:58;8.48;;;2.90;;
59960;SDS011;55902;-37.980;-63.602;2023-04-03T03:28:27;8.45;;;2.67;;
59960;SDS011;55902;-37.980;-63.602;2023-04-03T03:30:54;7.95;;;2.80;;
59960;SDS011;55902;-37.980;-63.602;2023-04-03T03:33:21;5.20;;;2.65;;
59960;SDS011;55902;-37.980;-63.602;2023-04-03T03:35:48;7.95;;;2.72;;
59960;SDS011;55902;-37.980;-63.602;2023-04-03T03:38:15;5.28;;;2.60;;
59960;SDS011;55902;-37.980;-63.602;2023-04-03T03:50:49;5.22;;;2.53;;
59960;SDS011;55902;-37.980;-63.602;2023-04-03T03:53:16;7.28;;;2.70;;
59960;SDS011;55902;-37.980;-63.602;2023-04-03T03:55:44;11.50;;;3.42;;
59960;SDS011;55902;-37.980;-63.602;2023-04-03T03:58:11;8.88;;;3.50;;
59960;SDS011;55902;-37.980;-63.602;2023-04-03T04:00:38;9.07;;;3.58;;
59960;SDS011;55902;-37.980;-63.602;2023-04-03T04:03:05;9.07;;;3.50;;
59960;SDS011;55902;-37.980;-63.602;2023-04-03T04:05:32;9.10;;;3.28;;
59960;SDS011;55902;-37.980;-63.602;2023-04-03T04:07:59;5.72;;;2.90;;
59960;SDS011;55902;-37.980;-63.602;2023-04-03T04:10:26;7.90;;;2.97;;
59960;SDS011;55902;-37.980;-63.602;2023-04-03T04:12:52;5.57;;;2.60;;
59960;SDS011;55902;-37.980;-63.602;2023-04-03T04:15:19;7.60;;;2.72;;
59960;SDS011;55902;-37.980;-63.602;2023-04-03T04:17:47;5.88;;;2.67;;
59960;SDS011;55902;-37.980;-63.602;2023-04-03T04:20:14;5.50;;;2.40;;
59960;SDS011;55902;-37.980;-63.602;2023-04-03T04:22:44;8.45;;;2.63;;
59960;SDS011;55902;-37.980;-63.602;2023-04-03T04:25:11;6.57;;;2.90;;
59960;SDS011;55902;-37.980;-63.602;2023-04-03T04:27:38;7.10;;;2.80;;
59960;SDS011;55902;-37.980;-63.602;2023-04-03T04:30:05;7.40;;;3.28;;
59960;SDS011;55902;-37.980;-63.602;2023-04-03T04:32:33;6.22;;;2.45;;
59960;SDS011;55902;-37.980;-63.602;2023-04-03T04:35:00;6.65;;;2.63;;
59960;SDS011;55902;-37.980;-63.602;2023-04-03T04:37:27;5.82;;;2.50;;
59960;SDS011;55902;-37.980;-63.602;2023-04-03T04:39:53;5.50;;;2.67;;
59960;SDS011;55902;-37.980;-63.602;2023-04-03T04:42:20;8.43;;;2.70;;
59960;SDS011;55902;-37.980;-63.602;2023-04-03T04:44:47;4.65;;;2.70;;
59960;SDS011;55902;-37.980;-63.602;2023-04-03T04:47:14;9.23;;;2.90;;
59960;SDS011;55902;-37.980;-63.602;2023-04-03T04:49:41;8.25;;;2.55;;
59960;SDS011;55902;-37.980;-63.602;2023-04-03T04:52:08;5.47;;;2.70;;
59960;SDS011;55902;-37.980;-63.602;2023-04-03T04:54:35;4.78;;;2.67;;
59960;SDS011;55902;-37.980;-63.602;2023-04-03T04:57:02;6.20;;;2.50;;
59960;SDS011;55902;-37.980;-63.602;2023-04-03T04:59:29;4.63;;;2.50;;
59960;SDS011;55902;-37.980;-63.602;2023-04-03T05:05:18;5.45;;;2.60;;
59960;SDS011;55902;-37.980;-63.602;2023-04-03T05:07:45;5.95;;;2.50;;
59960;SDS011;55902;-37.980;-63.602;2023-04-03T05:10:12;4.97;;;2.50;;
59960;SDS011;55902;-37.980;-63.602;2023-04-03T05:12:39;7.30;;;2.80;;
59960;SDS011;55902;-37.980;-63.602;2023-04-03T05:15:06;7.28;;;2.75;;
59960;SDS011;55902;-37.980;-63.602;2023-04-03T05:17:59;4.32;;;2.33;;
59960;SDS011;55902;-37.980;-63.602;2023-04-03T05:20:26;5.03;;;2.80;;
59960;SDS011;55902;-37.980;-63.602;2023-04-03T05:22:53;8.57;;;3.00;;
59960;SDS011;55902;-37.980;-63.602;2023-04-03T05:25:23;5.35;;;2.72;;
59960;SDS011;55902;-37.980;-63.602;2023-04-03T05:27:50;7.78;;;2.70;;
59960;SDS011;55902;-37.980;-63.602;2023-04-03T05:30:17;5.80;;;3.13;;
59960;SDS011;55902;-37.980;-63.602;2023-04-03T05:32:45;7.85;;;2.75;;
59960;SDS011;55902;-37.980;-63.602;2023-04-03T05:35:12;7.93;;;3.00;;
59960;SDS011;55902;-37.980;-63.602;2023-04-03T05:37:39;8.20;;;3.25;;
59960;SDS011;55902;-37.980;-63.602;2023-04-03T05:40:06;5.07;;;2.75;;
59960;SDS011;55902;-37.980;-63.602;2023-04-03T05:42:37;5.40;;;2.88;;
59960;SDS011;55902;-37.980;-63.602;2023-04-03T05:45:04;5.53;;;2.97;;
59960;SDS011;55902;-37.980;-63.602;2023-04-03T05:47:31;5.72;;;3.08;;
59960;SDS011;55902;-37.980;-63.602;2023-04-03T05:49:58;7.28;;;3.10;;
59960;SDS011;55902;-37.980;-63.602;2023-04-03T05:54:54;8.77;;;3.55;;
59960;SDS011;55902;-37.980;-63.602;2023-04-03T06:07:26;11.75;;;3.95;;
59960;SDS011;55902;-37.980;-63.602;2023-04-03T06:09:54;9.35;;;4.00;;
59960;SDS011;55902;-37.980;-63.602;2023-04-03T06:12:22;10.20;;;3.80;;
59960;SDS011;55902;-37.980;-63.602;2023-04-03T06:14:49;11.98;;;3.85;;
59960;SDS011;55902;-37.980;-63.602;2023-04-03T06:17:16;9.40;;;3.50;;
59960;SDS011;55902;-37.980;-63.602;2023-04-03T06:19:44;8.77;;;3.55;;
59960;SDS011;55902;-37.980;-63.602;2023-04-03T06:22:11;8.85;;;3.53;;
59960;SDS011;55902;-37.980;-63.602;2023-04-03T06:24:38;5.30;;;3.15;;
59960;SDS011;55902;-37.980;-63.602;2023-04-03T06:27:05;4.93;;;3.15;;
59960;SDS011;55902;-37.980;-63.602;2023-04-03T06:29:33;7.25;;;2.90;;
59960;SDS011;55902;-37.980;-63.602;2023-04-03T06:32:00;6.88;;;3.30;;
59960;SDS011;55902;-37.980;-63.602;2023-04-03T06:34:27;5.10;;;2.97;;
59960;SDS011;55902;-37.980;-63.602;2023-04-03T06:36:54;5.43;;;3.22;;
59960;SDS011;55902;-37.980;-63.602;2023-04-03T06:39:21;11.43;;;3.30;;
59960;SDS011;55902;-37.980;-63.602;2023-04-03T06:41:49;7.28;;;3.00;;
59960;SDS011;55902;-37.980;-63.602;2023-04-03T06:44:16;7.68;;;3.20;;
59960;SDS011;55902;-37.980;-63.602;2023-04-03T06:46:43;7.35;;;3.40;;
59960;SDS011;55902;-37.980;-63.602;2023-04-03T06:49:12;6.32;;;3.40;;
59960;SDS011;55902;-37.980;-63.602;2023-04-03T06:51:40;7.75;;;3.25;;
59960;SDS011;55902;-37.980;-63.602;2023-04-03T06:54:07;7.43;;;3.10;;
59960;SDS011;55902;-37.980;-63.602;2023-04-03T06:56:34;5.78;;;2.90;;
59960;SDS011;55902;-37.980;-63.602;2023-04-03T06:59:02;8.20;;;3.10;;
59960;SDS011;55902;-37.980;-63.602;2023-04-03T07:01:29;7.03;;;2.92;;
59960;SDS011;55902;-37.980;-63.602;2023-04-03T07:03:56;6.18;;;3.17;;
59960;SDS011;55902;-37.980;-63.602;2023-04-03T07:06:23;6.72;;;3.45;;
59960;SDS011;55902;-37.980;-63.602;2023-04-03T07:08:54;7.35;;;3.30;;
59960;SDS011;55902;-37.980;-63.602;2023-04-03T07:11:21;6.38;;;3.50;;
59960;SDS011;55902;-37.980;-63.602;2023-04-03T07:13:48;4.97;;;3.00;;
59960;SDS011;55902;-37.980;-63.602;2023-04-03T07:16:15;5.38;;;3.33;;
59960;SDS011;55902;-37.980;-63.602;2023-04-03T07:18:42;7.43;;;3.50;;
59960;SDS011;55902;-37.980;-63.602;2023-04-03T07:21:10;6.97;;;3.65;;
59960;SDS011;55902;-37.980;-63.602;2023-04-03T07:23:37;7.35;;;3.50;;
59960;SDS011;55902;-37.980;-63.602;2023-04-03T07:26:05;7.05;;;3.67;;
59960;SDS011;55902;-37.980;-63.602;2023-04-03T07:28:33;5.65;;;3.70;;
59960;SDS011;55902;-37.980;-63.602;2023-04-03T07:31:03;7.93;;;4.07;;
59960;SDS011;55902;-37.980;-63.602;2023-04-03T07:33:33;7.00;;;3.55;;
59960;SDS011;55902;-37.980;-63.602;2023-04-03T07:36:01;9.50;;;3.50;;
59960;SDS011;55902;-37.980;-63.602;2023-04-03T07:38:29;8.65;;;3.40;;
59960;SDS011;55902;-37.980;-63.602;2023-04-03T07:40:56;9.05;;;3.30;;
59960;SDS011;55902;-37.980;-63.602;2023-04-03T07:43:23;8.80;;;3.50;;
59960;SDS011;55902;-37.980;-63.602;2023-04-03T07:45:50;6.18;;;3.70;;
59960;SDS011;55902;-37.980;-63.602;2023-04-03T07:48:22;5.65;;;3.20;;
59960;SDS011;55902;-37.980;-63.602;2023-04-03T07:50:51;6.75;;;3.50;;
59960;SDS011;55902;-37.980;-63.602;2023-04-03T07:53:18;6.05;;;3.55;;
59960;SDS011;55902;-37.980;-63.602;2023-04-03T07:55:46;10.35;;;3.85;;
59960;SDS011;55902;-37.980;-63.602;2023-04-03T07:58:16;6.03;;;3.40;;
59960;SDS011;55902;-37.980;-63.602;2023-04-03T08:00:44;6.88;;;3.42;;
59960;SDS011;55902;-37.980;-63.602;2023-04-03T08:03:11;6.03;;;3.30;;
59960;SDS011;55902;-37.980;-63.602;2023-04-03T08:05:39;7.85;;;3.35;;
59960;SDS011;55902;-37.980;-63.602;2023-04-03T08:08:11;7.10;;;3.42;;
59960;SDS011;55902;-37.980;-63.602;2023-04-03T08:10:39;6.10;;;3.70;;
59960;SDS011;55902;-37.980;-63.602;2023-04-03T08:13:06;6.97;;;3.20;;
59960;SDS011;55902;-37.980;-63.602;2023-04-03T08:15:33;6.60;;;3.30;;
59960;SDS011;55902;-37.980;-63.602;2023-04-03T08:18:01;5.13;;;3.08;;
59960;SDS011;55902;-37.980;-63.602;2023-04-03T08:20:28;4.68;;;3.20;;
59960;SDS011;55902;-37.980;-63.602;2023-04-03T08:22:55;7.05;;;3.45;;
59960;SDS011;55902;-37.980;-63.602;2023-04-03T08:25:23;9.55;;;3.70;;
59960;SDS011;55902;-37.980;-63.602;2023-04-03T08:27:50;11.77;;;4.13;;
59960;SDS011;55902;-37.980;-63.602;2023-04-03T08:30:17;15.30;;;4.13;;
59960;SDS011;55902;-37.980;-63.602;2023-04-03T08:32:45;13.82;;;4.05;;
59960;SDS011;55902;-37.980;-63.602;2023-04-03T08:35:12;16.27;;;4.40;;
59960;SDS011;55902;-37.980;-63.602;2023-04-03T08:37:39;8.75;;;3.35;;
59960;SDS011;55902;-37.980;-63.602;2023-04-03T08:40:07;8.98;;;3.33;;
59960;SDS011;55902;-37.980;-63.602;2023-04-03T08:45:15;7.78;;;3.80;;
59960;SDS011;55902;-37.980;-63.602;2023-04-03T08:48:00;13.05;;;4.07;;
59960;SDS011;55902;-37.980;-63.602;2023-04-03T08:50:43;12.95;;;4.28;;
59960;SDS011;55902;-37.980;-63.602;2023-04-03T08:53:17;9.52;;;3.70;;
59960;SDS011;55902;-37.980;-63.602;2023-04-03T08:55:52;7.00;;;3.30;;
59960;SDS011;55902;-37.980;-63.602;2023-04-03T08:58:22;9.70;;;3.83;;
59960;SDS011;55902;-37.980;-63.602;2023-04-03T09:04:11;9.02;;;3.95;;
59960;SDS011;55902;-37.980;-63.602;2023-04-03T09:06:41;6.40;;;3.50;;
59960;SDS011;55902;-37.980;-63.602;2023-04-03T09:12:15;6.30;;;3.60;;
59960;SDS011;55902;-37.980;-63.602;2023-04-03T09:20:44;6.35;;;3.95;;
59960;SDS011;55902;-37.980;-63.602;2023-04-03T09:23:22;9.05;;;3.65;;
59960;SDS011;55902;-37.980;-63.602;2023-04-03T09:26:04;10.55;;;3.70;;
59960;SDS011;55902;-37.980;-63.602;2023-04-03T09:28:37;8.18;;;3.15;;
59960;SDS011;55902;-37.980;-63.602;2023-04-03T09:31:27;6.80;;;3.45;;
59960;SDS011;55902;-37.980;-63.602;2023-04-03T09:34:23;5.18;;;3.28;;
59960;SDS011;55902;-37.980;-63.602;2023-04-03T09:37:03;9.68;;;3.70;;
59960;SDS011;55902;-37.980;-63.602;2023-04-03T09:39:52;7.07;;;3.40;;
59960;SDS011;55902;-37.980;-63.602;2023-04-03T09:42:22;16.23;;;4.22;;
59960;SDS011;55902;-37.980;-63.602;2023-04-03T09:44:54;19.02;;;5.47;;
59960;SDS011;55902;-37.980;-63.602;2023-04-03T09:50:08;11.07;;;4.18;;
59960;SDS011;55902;-37.980;-63.602;2023-04-03T09:52:41;15.13;;;4.20;;
59960;SDS011;55902;-37.980;-63.602;2023-04-03T09:55:17;8.75;;;3.80;;
59960;SDS011;55902;-37.980;-63.602;2023-04-03T09:58:02;10.25;;;3.60;;
59960;SDS011;55902;-37.980;-63.602;2023-04-03T10:00:34;9.52;;;3.65;;
59960;SDS011;55902;-37.980;-63.602;2023-04-03T10:03:04;11.05;;;3.47;;
59960;SDS011;55902;-37.980;-63.602;2023-04-03T10:10:44;9.32;;;3.70;;
59960;SDS011;55902;-37.980;-63.602;2023-04-03T10:13:18;9.63;;;4.10;;
59960;SDS011;55902;-37.980;-63.602;2023-04-03T10:15:56;7.88;;;3.72;;
59960;SDS011;55902;-37.980;-63.602;2023-04-03T10:25:15;9.05;;;4.28;;
59960;SDS011;55902;-37.980;-63.602;2023-04-03T10:28:23;13.25;;;4.95;;
59960;SDS011;55902;-37.980;-63.602;2023-04-03T10:31:08;11.27;;;4.70;;
59960;SDS011;55902;-37.980;-63.602;2023-04-03T10:34:30;10.07;;;4.53;;
59960;SDS011;55902;-37.980;-63.602;2023-04-03T10:40:04;10.60;;;4.20;;
59960;SDS011;55902;-37.980;-63.602;2023-04-03T10:43:02;9.55;;;4.07;;
59960;SDS011;55902;-37.980;-63.602;2023-04-03T10:46:32;10.15;;;4.70;;
59960;SDS011;55902;-37.980;-63.602;2023-04-03T10:49:45;7.97;;;4.05;;
59960;SDS011;55902;-37.980;-63.602;2023-04-03T10:52:39;12.57;;;5.13;;
59960;SDS011;55902;-37.980;-63.602;2023-04-03T10:55:41;8.73;;;4.32;;
59960;SDS011;55902;-37.980;-63.602;2023-04-03T10:58:21;10.07;;;4.40;;
59960;SDS011;55902;-37.980;-63.602;2023-04-03T11:00:57;10.05;;;4.57;;
59960;SDS011;55902;-37.980;-63.602;2023-04-03T11:03:36;7.95;;;4.22;;
59960;SDS011;55902;-37.980;-63.602;2023-04-03T11:06:18;7.30;;;3.78;;
59960;SDS011;55902;-37.980;-63.602;2023-04-03T11:09:02;11.88;;;4.95;;
59960;SDS011;55902;-37.980;-63.602;2023-04-03T11:11:34;12.38;;;5.68;;
59960;SDS011;55902;-37.980;-63.602;2023-04-03T11:14:25;12.27;;;5.38;;
59960;SDS011;55902;-37.980;-63.602;2023-04-03T11:20:06;7.57;;;4.13;;
59960;SDS011;55902;-37.980;-63.602;2023-04-03T11:22:43;6.82;;;3.92;;
59960;SDS011;55902;-37.980;-63.602;2023-04-03T11:25:32;9.85;;;5.30;;
59960;SDS011;55902;-37.980;-63.602;2023-04-03T11:28:03;9.55;;;4.35;;
59960;SDS011;55902;-37.980;-63.602;2023-04-03T11:33:31;12.52;;;3.80;;
59960;SDS011;55902;-37.980;-63.602;2023-04-03T11:36:04;11.37;;;3.77;;
59960;SDS011;55902;-37.980;-63.602;2023-04-03T11:38:34;5.35;;;3.10;;
59960;SDS011;55902;-37.980;-63.602;2023-04-03T11:41:07;7.45;;;3.00;;
59960;SDS011;55902;-37.980;-63.602;2023-04-03T11:43:42;8.07;;;2.53;;
59960;SDS011;55902;-37.980;-63.602;2023-04-03T12:00:49;4.82;;;2.30;;
59960;SDS011;55902;-37.980;-63.602;2023-04-03T12:06:42;5.47;;;2.30;;
59960;SDS011;55902;-37.980;-63.602;2023-04-03T12:09:01;7.10;;;2.35;;
59960;SDS011;55902;-37.980;-63.602;2023-04-03T12:11:47;5.10;;;2.15;;
59960;SDS011;55902;-37.980;-63.602;2023-04-03T12:14:16;4.93;;;2.03;;
59960;SDS011;55902;-37.980;-63.602;2023-04-03T12:16:45;6.45;;;2.50;;
59960;SDS011;55902;-37.980;-63.602;2023-04-03T12:22:17;7.10;;;2.45;;
59960;SDS011;55902;-37.980;-63.602;2023-04-03T12:24:50;5.30;;;2.40;;
59960;SDS011;55902;-37.980;-63.602;2023-04-03T12:27:23;7.45;;;2.33;;
59960;SDS011;55902;-37.980;-63.602;2023-04-03T12:35:05;7.25;;;2.20;;
59960;SDS011;55902;-37.980;-63.602;2023-04-03T12:38:01;6.38;;;1.80;;
59960;SDS011;55902;-37.980;-63.602;2023-04-03T12:46:02;8.20;;;2.20;;
59960;SDS011;55902;-37.980;-63.602;2023-04-03T12:51:21;6.85;;;1.98;;
59960;SDS011;55902;-37.980;-63.602;2023-04-03T12:53:56;10.88;;;2.70;;
59960;SDS011;55902;-37.980;-63.602;2023-04-03T12:56:30;6.63;;;2.50;;
59960;SDS011;55902;-37.980;-63.602;2023-04-03T12:59:16;6.07;;;2.63;;
59960;SDS011;55902;-37.980;-63.602;2023-04-03T13:01:57;9.43;;;3.22;;
59960;SDS011;55902;-37.980;-63.602;2023-04-03T13:04:26;7.30;;;3.15;;
59960;SDS011;55902;-37.980;-63.602;2023-04-03T13:06:54;7.03;;;3.33;;
59960;SDS011;55902;-37.980;-63.602;2023-04-03T13:09:26;8.25;;;3.65;;
59960;SDS011;55902;-37.980;-63.602;2023-04-03T13:12:10;6.05;;;3.03;;
59960;SDS011;55902;-37.980;-63.602;2023-04-03T13:14:40;7.18;;;2.92;;
59960;SDS011;55902;-37.980;-63.602;2023-04-03T13:17:18;3.45;;;2.50;;
59960;SDS011;55902;-37.980;-63.602;2023-04-03T13:19:47;5.60;;;2.80;;
59960;SDS011;55902;-37.980;-63.602;2023-04-03T13:22:38;4.93;;;2.85;;
59960;SDS011;55902;-37.980;-63.602;2023-04-03T13:25:33;4.47;;;2.65;;
59960;SDS011;55902;-37.980;-63.602;2023-04-03T13:28:09;6.55;;;3.10;;
59960;SDS011;55902;-37.980;-63.602;2023-04-03T13:30:53;5.47;;;2.75;;
59960;SDS011;55902;-37.980;-63.602;2023-04-03T13:33:24;4.75;;;2.40;;
59960;SDS011;55902;-37.980;-63.602;2023-04-03T13:35:57;4.70;;;2.47;;
59960;SDS011;55902;-37.980;-63.602;2023-04-03T13:38:30;5.05;;;2.70;;
59960;SDS011;55902;-37.980;-63.602;2023-04-03T13:41:25;4.22;;;2.50;;
59960;SDS011;55902;-37.980;-63.602;2023-04-03T13:46:43;15.82;;;3.88;;
59960;SDS011;55902;-37.980;-63.602;2023-04-03T13:49:19;5.55;;;2.53;;
59960;SDS011;55902;-37.980;-63.602;2023-04-03T13:55:24;3.85;;;2.13;;
59960;SDS011;55902;-37.980;-63.602;2023-04-03T14:00:45;5.05;;;2.70;;
59960;SDS011;55902;-37.980;-63.602;2023-04-03T14:03:23;4.80;;;2.55;;
59960;SDS011;55902;-37.980;-63.602;2023-04-03T14:05:59;8.20;;;2.38;;
59960;SDS011;55902;-37.980;-63.602;2023-04-03T14:08:47;5.80;;;2.53;;
59960;SDS011;55902;-37.980;-63.602;2023-04-03T14:11:22;7.38;;;3.05;;
59960;SDS011;55902;-37.980;-63.602;2023-04-03T14:16:31;6.82;;;2.70;;
59960;SDS011;55902;-37.980;-63.602;2023-04-03T14:19:04;8.02;;;3.10;;
59960;SDS011;55902;-37.980;-63.602;2023-04-03T14:21:32;8.23;;;2.90;;
59960;SDS011;55902;-37.980;-63.602;2023-04-03T14:24:09;6.20;;;2.70;;
59960;SDS011;55902;-37.980;-63.602;2023-04-03T14:26:54;8.75;;;2.80;;
59960;SDS011;55902;-37.980;-63.602;2023-04-03T14:29:30;6.72;;;2.88;;
59960;SDS011;55902;-37.980;-63.602;2023-04-03T14:32:22;5.28;;;2.67;;
59960;SDS011;55902;-37.980;-63.602;2023-04-03T14:35:06;6.18;;;2.53;;
59960;SDS011;55902;-37.980;-63.602;2023-04-03T14:37:34;6.05;;;2.65;;
59960;SDS011;55902;-37.980;-63.602;2023-04-03T14:40:15;5.35;;;2.67;;
59960;SDS011;55902;-37.980;-63.602;2023-04-03T14:42:50;6.50;;;2.40;;
59960;SDS011;55902;-37.980;-63.602;2023-04-03T14:45:21;4.78;;;2.00;;
59960;SDS011;55902;-37.980;-63.602;2023-04-03T14:47:50;6.35;;;2.50;;
59960;SDS011;55902;-37.980;-63.602;2023-04-03T14:50:43;3.55;;;2.20;;
59960;SDS011;55902;-37.980;-63.602;2023-04-03T14:53:11;5.40;;;2.30;;
59960;SDS011;55902;-37.980;-63.602;2023-04-03T14:55:45;4.50;;;2.00;;
59960;SDS011;55902;-37.980;-63.602;2023-04-03T14:58:18;5.25;;;2.05;;
59960;SDS011;55902;-37.980;-63.602;2023-04-03T15:00:52;6.05;;;2.10;;
59960;SDS011;55902;-37.980;-63.602;2023-04-03T15:03:23;3.30;;;1.90;;
59960;SDS011;55902;-37.980;-63.602;2023-04-03T15:05:55;5.03;;;1.80;;
59960;SDS011;55902;-37.980;-63.602;2023-04-03T15:08:34;4.32;;;1.85;;
59960;SDS011;55902;-37.980;-63.602;2023-04-03T15:11:06;7.30;;;1.90;;
59960;SDS011;55902;-37.980;-63.602;2023-04-03T15:13:35;7.72;;;2.17;;
59960;SDS011;55902;-37.980;-63.602;2023-04-03T15:16:04;5.00;;;2.22;;
59960;SDS011;55902;-37.980;-63.602;2023-04-03T15:18:38;5.00;;;1.70;;
59960;SDS011;55902;-37.980;-63.602;2023-04-03T15:21:05;5.72;;;2.05;;
59960;SDS011;55902;-37.980;-63.602;2023-04-03T15:23:33;7.13;;;2.35;;
59960;SDS011;55902;-37.980;-63.602;2023-04-03T15:26:00;4.38;;;2.00;;
59960;SDS011;55902;-37.980;-63.602;2023-04-03T15:28:30;3.33;;;1.77;;
59960;SDS011;55902;-37.980;-63.602;2023-04-03T15:31:00;4.63;;;1.80;;
59960;SDS011;55902;-37.980;-63.602;2023-04-03T15:33:29;7.13;;;1.70;;
59960;SDS011;55902;-37.980;-63.602;2023-04-03T15:35:56;5.03;;;1.50;;
59960;SDS011;55902;-37.980;-63.602;2023-04-03T15:38:23;5.07;;;2.10;;
59960;SDS011;55902;-37.980;-63.602;2023-04-03T15:40:51;4.15;;;1.67;;
59960;SDS011;55902;-37.980;-63.602;2023-04-03T15:43:19;5.88;;;1.88;;
59960;SDS011;55902;-37.980;-63.602;2023-04-03T15:45:46;4.07;;;1.42;;
59960;SDS011;55902;-37.980;-63.602;2023-04-03T15:48:15;7.25;;;1.60;;
59960;SDS011;55902;-37.980;-63.602;2023-04-03T15:50:43;4.90;;;1.60;;
59960;SDS011;55902;-37.980;-63.602;2023-04-03T15:53:10;5.40;;;1.52;;
59960;SDS011;55902;-37.980;-63.602;2023-04-03T15:55:39;4.18;;;1.70;;
59960;SDS011;55902;-37.980;-63.602;2023-04-03T15:58:12;7.40;;;1.65;;
59960;SDS011;55902;-37.980;-63.602;2023-04-03T16:00:40;3.03;;;1.40;;
59960;SDS011;55902;-37.980;-63.602;2023-04-03T16:03:10;5.28;;;1.80;;
59960;SDS011;55902;-37.980;-63.602;2023-04-03T16:05:40;5.15;;;1.67;;
59960;SDS011;55902;-37.980;-63.602;2023-04-03T16:08:11;4.28;;;1.50;;
59960;SDS011;55902;-37.980;-63.602;2023-04-03T16:10:43;4.82;;;1.27;;
59960;SDS011;55902;-37.980;-63.602;2023-04-03T16:13:11;5.63;;;1.50;;
59960;SDS011;55902;-37.980;-63.602;2023-04-03T16:15:40;5.50;;;1.40;;
59960;SDS011;55902;-37.980;-63.602;2023-04-03T16:18:11;4.78;;;1.50;;
59960;SDS011;55902;-37.980;-63.602;2023-04-03T16:20:39;5.55;;;1.40;;
59960;SDS011;55902;-37.980;-63.602;2023-04-03T16:23:06;4.47;;;1.63;;
59960;SDS011;55902;-37.980;-63.602;2023-04-03T16:25:36;5.38;;;1.40;;
59960;SDS011;55902;-37.980;-63.602;2023-04-03T16:28:03;6.82;;;1.50;;
59960;SDS011;55902;-37.980;-63.602;2023-04-03T16:30:32;4.30;;;1.38;;
59960;SDS011;55902;-37.980;-63.602;2023-04-03T16:32:59;5.65;;;1.55;;
59960;SDS011;55902;-37.980;-63.602;2023-04-03T16:35:27;5.05;;;1.50;;
59960;SDS011;55902;-37.980;-63.602;2023-04-03T16:37:54;4.72;;;1.55;;
59960;SDS011;55902;-37.980;-63.602;2023-04-03T16:40:21;7.25;;;1.50;;
59960;SDS011;55902;-37.980;-63.602;2023-04-03T16:42:51;3.92;;;1.40;;
59960;SDS011;55902;-37.980;-63.602;2023-04-03T16:45:18;5.28;;;1.40;;
59960;SDS011;55902;-37.980;-63.602;2023-04-03T16:47:45;6.45;;;1.60;;
59960;SDS011;55902;-37.980;-63.602;2023-04-03T16:50:14;4.63;;;1.33;;